• Join FlightAware (Why Join?)
  • Login
  • US Flag 
10:14PM EST


 

Airport Tracker/Info


-or-


 

Live Flight TrackerFlight Track Log ✈ SWA3497 ✈ 24-Apr-2013 ✈ KBWI - KALB

Flight Track Log - Related Links

Times and Time Zones

All times are in EDT time to prevent confusion due to time zone crossing. See the SWA3497 flight status page for this flight to view local times or setup timezone preferences in your user account.

Time Position Orientation Groundspeed Altitude Reporting Facility
EDT Latitude Longitude Course Direction KTS MPH feet Rate Location/Type
04:28PM 39.1500 -76.6500 142° Southeast 160 184 1,700  Level Potomac TRACON
04:29PM 39.1000 -76.6000 142° Southeast 217 250 4,100 2,880 Climbing Potomac TRACON
04:30PM 39.0831 -76.4661 99° East 220 253 9,500 2,640 Climbing Washington Center
04:31PM 39.1153 -76.3567 69° East 265 305 11,200 2,160 Climbing Washington Center
04:32PM 39.1472 -76.2286 72° East 307 353 13,900 2,580 Climbing Washington Center
04:33PM 39.1686 -76.1003 78° East 368 423 16,400 2,880 Climbing Washington Center
04:34PM 39.1839 -75.9531 82° East 395 455 19,700 2,940 Climbing Washington Center
04:35PM 39.2383 -75.8275 61° Northeast 401 461 22,300 2,400 Climbing Washington Center
04:36PM 39.3217 -75.7150 46° Northeast 413 475 24,600 2,340 Climbing Washington Center
04:37PM 39.4094 -75.6022 45° Northeast 425 489 27,000 2,100 Climbing Washington Center
04:38PM 39.4969 -75.4894 45° Northeast 430 495 28,900 960 Climbing Washington Center
04:39PM 39.5822 -75.3761 46° Northeast 430 495 29,000  Climbing Washington Center
04:40PM 39.6653 -75.2653 46° Northeast 430 495 29,000  Level Washington Center
04:41PM 39.7544 -75.1408 47° Northeast 430 495 29,000  Level Washington Center
04:42PM 39.8372 -75.0186 49° Northeast 436 502 29,000  Level Washington Center
04:43PM 39.9178 -74.9044 47° Northeast 436 502 29,000  Level Washington Center
04:44PM 39.9381 -74.8753 48° Northeast 437 503 29,000  Level New York Center
04:45PM 40.0256 -74.7503 48° Northeast 437 503 29,000  Level New York Center
04:46PM 40.0978 -74.6458 48° Northeast 437 503 29,000  Level New York Center
04:47PM 40.1853 -74.5203 48° Northeast 432 497 29,000  Level New York Center
04:48PM 40.2717 -74.4217 41° Northeast 432 497 29,000  Level New York Center
04:49PM 40.3644 -74.3231 39° Northeast 427 491 29,000  Level New York Center
04:50PM 40.4592 -74.2217 39° Northeast 427 491 29,000 -60 Level New York Center
04:51PM 40.5517 -74.1225 39° Northeast 427 491 28,900 -1,080 Descending New York Center
04:52PM 40.6397 -74.0256 40° Northeast 427 491 26,900 -1,380 Descending New York Center
04:54PM 40.8650 -73.7767 40° Northeast 393 452 24,000 -900 Descending Boston Center
04:55PM 40.9433 -73.6711 45° Northeast 388 447 23,800 -540 Descending Boston Center
04:56PM 41.0297 -73.5764 40° Northeast 393 452 23,000 -420 Descending Boston Center
04:57PM 41.1097 -73.4786 43° Northeast 393 452 23,000 -360 Level Boston Center
04:59PM 41.2125 -73.4197 23° Northeast 385 443 22,300 -900 Descending Boston Center
05:00PM 41.3397 -73.4078 North 378 435 21,100 -1,140 Descending Boston Center
05:01PM 41.4436 -73.4231 354° North 372 428 20,100 -900 Descending Boston Center
05:02PM 41.5581 -73.4444 352° North 367 422 19,300 -900 Descending Boston Center
05:03PM 41.6433 -73.4569 354° North 353 406 18,300 -1,140 Descending Boston Center
05:04PM 41.7497 -73.4697 355° North 353 406 17,100 -1,320 Descending Boston Center
05:05PM 41.8369 -73.4850 353° North 353 406 15,700 -1,620 Descending Boston Center
05:05PM 41.8994 -73.4944 354° North 342 394 14,600 -1,740 Descending Boston Center
05:06PM 41.9350 -73.4978 356° North 336 387 14,000 -1,560 Descending Boston Center
05:07PM 42.0306 -73.5161 352° North 318 366 12,400 -1,440 Descending Boston Center
05:08PM 42.1158 -73.5289 354° North 308 354 11,100 -720 Descending Boston Center
05:09PM 42.1969 -73.5469 351° North 311 358 11,000 -300 Descending Boston Center
05:10PM 42.2803 -73.5625 352° North 301 346 10,500 -900 Descending Boston Center
05:11PM 42.3614 -73.5808 351° North 291 335 9,200 -1,380 Descending Boston Center
05:12PM 42.4403 -73.5964 352° North 285 328 7,800 -1,380 Descending Boston Center
05:13PM 42.5172 -73.6092 353° North 280 322 6,500 -1,380 Descending Boston Center
05:14PM 42.5964 -73.6303 349° North 272 313 5,100 -1,080 Descending Boston Center
05:15PM 42.6711 -73.6458 351° North 267 307 4,400 -900 Descending Boston Center
05:16PM 42.7461 -73.6672 348° North 270 311 3,300 -660 Descending Boston Center
05:17PM 42.8125 -73.6853 349° North 244 281 3,100 -240 Descending Boston Center
05:18PM 42.8642 -73.7206 333° Northwest 200 230 2,900 -540 Descending Boston Center
05:19PM 42.8489 -73.7853 252° West 155 178 2,100 -720 Descending Boston Center
05:20PM 42.8214 -73.8131 217° Southwest 132 152 1,500 -600 Descending Boston Center